Time;durP1;ratioP1;P1;durP2;ratioP2;P2;SDS_P1;SDS_P2;PMS_P1;PMS_P2;Temp;Humidity;BMP_temperature;BMP_pressure;BME280_temperature;BME280_humidity;BME280_pressure;Samples;Min_cycle;Max_cycle;Signal;HPM_P1;HPM_P2
2023/05/28 00:00:15;;;;;;;10.60;4.60;;;10.20;92.60;;;;;;2056719;28;20214;-70
2023/05/28 00:01:17;;;;;;;9.63;4.63;;;10.20;92.70;;;;;;2054601;28;20660;-70
2023/05/28 00:02:18;;;;;;;7.50;4.50;;;10.40;92.80;;;;;;2054879;28;20191;-70
2023/05/28 00:03:20;;;;;;;10.32;5.00;;;10.20;93.00;;;;;;2051259;28;20189;-70
2023/05/28 00:04:21;;;;;;;11.05;4.75;;;10.20;93.10;;;;;;2054054;28;20334;-70
2023/05/28 00:05:23;;;;;;;7.53;4.78;;;10.10;93.30;;;;;;2059371;28;20246;-70
2023/05/28 00:06:23;;;;;;;10.55;4.28;;;10.20;93.20;;;;;;2068951;28;20278;-72
2023/05/28 00:07:24;;;;;;;9.67;4.23;;;10.10;93.10;;;;;;2062993;28;20284;-70
2023/05/28 00:08:25;;;;;;;8.73;4.05;;;10.10;93.00;;;;;;2061848;28;20380;-71
2023/05/28 00:09:26;;;;;;;10.63;4.53;;;10.10;92.90;;;;;;2062148;28;20258;-70
2023/05/28 00:10:27;;;;;;;6.37;3.90;;;10.10;92.90;;;;;;2054174;28;20226;-70
2023/05/28 00:11:27;;;;;;;9.77;4.10;;;10.10;92.90;;;;;;2054682;28;20296;-70
2023/05/28 00:12:28;;;;;;;6.73;4.10;;;10.10;92.80;;;;;;2062466;28;20480;-70
2023/05/28 00:13:30;;;;;;;6.23;4.23;;;10.00;92.80;;;;;;2062622;28;20315;-70
2023/05/28 00:14:31;;;;;;;11.80;4.93;;;10.10;92.80;;;;;;2059487;28;20629;-70
2023/05/28 00:15:31;;;;;;;7.10;4.43;;;10.10;93.20;;;;;;2061869;28;20224;-70
2023/05/28 00:16:37;;;;;;;6.20;4.27;;;10.00;92.80;;;;;;2055516;28;20694;-70
2023/05/28 00:17:37;;;;;;;7.25;4.38;;;10.00;92.90;;;;;;2059316;28;20221;-70
2023/05/28 00:18:38;;;;;;;6.50;4.23;;;10.00;92.90;;;;;;2059090;28;20317;-70
2023/05/28 00:19:40;;;;;;;7.57;4.60;;;10.30;93.10;;;;;;2054751;28;20276;-70
2023/05/28 00:20:40;;;;;;;9.80;4.30;;;10.00;93.10;;;;;;2049332;28;20817;-70
2023/05/28 00:21:41;;;;;;;7.17;4.03;;;9.90;93.50;;;;;;2051691;28;20242;-70
2023/05/28 00:22:44;;;;;;;7.77;3.83;;;9.90;93.40;;;;;;2042632;29;20346;-70
2023/05/28 00:23:45;;;;;;;10.80;4.72;;;9.90;93.40;;;;;;2044750;28;20227;-70
2023/05/28 00:24:46;;;;;;;10.27;4.57;;;9.90;93.50;;;;;;2059636;28;20269;-70
2023/05/28 00:25:47;;;;;;;6.63;4.30;;;9.90;93.60;;;;;;2061141;28;20706;-70
2023/05/28 00:26:47;;;;;;;9.93;5.40;;;10.10;93.80;;;;;;2060018;28;20593;-70
2023/05/28 00:27:48;;;;;;;7.67;4.07;;;9.70;93.80;;;;;;2051094;28;20222;-70
2023/05/28 00:28:49;;;;;;;8.43;3.93;;;9.80;94.00;;;;;;2061101;28;20249;-70
2023/05/28 00:29:50;;;;;;;7.77;4.10;;;9.60;94.00;;;;;;2061647;28;20218;-70
2023/05/28 00:30:50;;;;;;;5.90;3.93;;;9.60;94.10;;;;;;2057403;28;20701;-70
2023/05/28 00:31:54;;;;;;;9.60;4.83;;;9.60;94.30;;;;;;2057221;28;20309;-69
2023/05/28 00:32:55;;;;;;;7.68;4.07;;;9.50;94.30;;;;;;2056382;28;20221;-71
2023/05/28 00:33:56;;;;;;;7.33;4.27;;;9.50;94.50;;;;;;2047415;28;20227;-70
2023/05/28 00:34:57;;;;;;;9.23;4.50;;;9.60;94.40;;;;;;2048347;28;20278;-70
2023/05/28 00:35:58;;;;;;;7.90;4.17;;;9.70;94.40;;;;;;2060201;28;20324;-70
2023/05/28 00:36:59;;;;;;;9.55;4.40;;;9.60;94.40;;;;;;2055835;28;20242;-70
2023/05/28 00:37:59;;;;;;;7.93;4.03;;;9.60;94.40;;;;;;2063710;28;20266;-72
2023/05/28 00:39:04;;;;;;;9.37;4.47;;;9.60;94.30;;;;;;2060745;28;20212;-71
2023/05/28 00:40:06;;;;;;;8.63;4.68;;;9.60;94.90;;;;;;2054665;28;20211;-70
2023/05/28 00:41:09;;;;;;;7.93;3.72;;;9.60;94.70;;;;;;2048516;28;20720;-71
2023/05/28 00:42:12;;;;;;;6.00;4.20;;;9.80;94.80;;;;;;2055822;28;20677;-71
2023/05/28 00:43:13;;;;;;;11.63;4.57;;;9.50;94.80;;;;;;2061702;28;20201;-71
2023/05/28 00:44:13;;;;;;;11.37;4.67;;;9.40;99.90;;;;;;2056570;28;20219;-71
2023/05/28 00:45:15;;;;;;;6.73;4.50;;;9.70;95.00;;;;;;2061263;28;20194;-71
2023/05/28 00:46:21;;;;;;;6.63;3.92;;;9.50;95.00;;;;;;2060439;28;20198;-71
2023/05/28 00:47:22;;;;;;;7.93;4.18;;;9.50;94.90;;;;;;2059598;28;20683;-71
2023/05/28 00:48:23;;;;;;;6.85;4.43;;;9.50;94.80;;;;;;2053315;28;20237;-69
2023/05/28 00:49:24;;;;;;;6.65;4.63;;;9.50;94.70;;;;;;2064417;28;20229;-69
2023/05/28 00:50:25;;;;;;;9.00;4.80;;;9.50;94.60;;;;;;2062038;28;20314;-69
2023/05/28 00:51:26;;;;;;;7.17;3.87;;;9.50;94.70;;;;;;2055365;28;20325;-70
2023/05/28 00:52:27;;;;;;;9.85;4.63;;;9.50;94.70;;;;;;2060732;28;20317;-69
2023/05/28 00:53:28;;;;;;;8.67;4.50;;;9.50;94.50;;;;;;2059277;28;20240;-70
2023/05/28 00:54:30;;;;;;;7.53;4.30;;;9.50;94.60;;;;;;2054807;28;20257;-70
2023/05/28 00:55:31;;;;;;;8.82;3.95;;;9.50;94.50;;;;;;2052578;28;20235;-71
2023/05/28 00:56:32;;;;;;;6.15;4.35;;;9.50;94.50;;;;;;2054773;28;20309;-71
2023/05/28 00:57:36;;;;;;;6.80;4.40;;;9.60;94.50;;;;;;2051906;28;20274;-71
2023/05/28 00:58:43;;;;;;;7.38;4.68;;;9.60;94.40;;;;;;2062981;28;20332;-71
2023/05/28 00:59:44;;;;;;;9.68;4.60;;;9.50;94.70;;;;;;2064015;28;20693;-71
2023/05/28 01:00:45;;;;;;;10.13;4.33;;;9.50;95.30;;;;;;2047947;28;20281;-71
2023/05/28 01:01:47;;;;;;;10.77;4.75;;;9.40;94.80;;;;;;2046525;28;20675;-71
2023/05/28 01:02:48;;;;;;;6.78;3.95;;;9.40;95.00;;;;;;2053086;28;20227;-71
2023/05/28 01:03:51;;;;;;;8.80;4.20;;;9.50;95.00;;;;;;2063121;28;20212;-71
2023/05/28 01:04:52;;;;;;;8.80;4.13;;;9.40;95.20;;;;;;2063308;28;20868;-70
2023/05/28 01:05:53;;;;;;;9.90;4.33;;;9.40;95.20;;;;;;2059835;28;20305;-71
2023/05/28 01:06:56;;;;;;;7.93;4.47;;;9.40;95.20;;;;;;2062215;28;20237;-71
2023/05/28 01:08:02;;;;;;;12.10;6.07;;;9.30;95.30;;;;;;2045560;28;20227;-71
2023/05/28 01:09:06;;;;;;;7.78;3.85;;;9.30;95.40;;;;;;2044763;28;20220;-71
2023/05/28 01:10:07;;;;;;;7.10;4.00;;;9.20;99.90;;;;;;2045460;28;20188;-71
2023/05/28 01:11:15;;;;;;;7.72;4.18;;;8.90;99.90;;;;;;2055950;28;20190;-71
2023/05/28 01:12:17;;;;;;;7.05;4.05;;;9.30;99.90;;;;;;2048586;28;20206;-71
2023/05/28 01:13:18;;;;;;;6.78;3.90;;;9.30;95.80;;;;;;2055619;28;20274;-71
2023/05/28 01:14:20;;;;;;;9.67;4.40;;;9.30;95.90;;;;;;2051531;28;20658;-70
2023/05/28 01:15:21;;;;;;;9.68;4.57;;;9.20;95.80;;;;;;2048724;28;20234;-71
2023/05/28 01:16:22;;;;;;;9.83;4.67;;;9.20;95.90;;;;;;2043065;28;20232;-70
2023/05/28 01:17:24;;;;;;;7.63;4.37;;;9.20;95.80;;;;;;2049641;28;20251;-70
2023/05/28 01:18:25;;;;;;;6.75;4.45;;;9.20;95.80;;;;;;2053177;28;20239;-71
2023/05/28 01:19:27;;;;;;;9.43;4.40;;;9.20;95.60;;;;;;2051808;28;20288;-71
2023/05/28 01:20:29;;;;;;;9.30;4.53;;;9.30;95.70;;;;;;2055701;28;20321;-70
2023/05/28 01:21:30;;;;;;;8.13;3.95;;;9.20;95.70;;;;;;2060187;28;20231;-71
2023/05/28 01:22:38;;;;;;;8.80;4.20;;;9.20;95.60;;;;;;2059962;28;20610;-71
2023/05/28 01:23:46;;;;;;;9.80;4.18;;;9.30;95.60;;;;;;2042374;28;20308;-71
2023/05/28 01:24:48;;;;;;;8.00;4.38;;;9.30;95.60;;;;;;2057879;28;20265;-71
2023/05/28 01:25:51;;;;;;;13.18;4.55;;;9.20;95.50;;;;;;2062767;28;20225;-70
2023/05/28 01:26:52;;;;;;;8.98;4.05;;;9.20;95.70;;;;;;2045164;28;20231;-70
2023/05/28 01:27:53;;;;;;;6.97;3.72;;;9.20;95.70;;;;;;2062559;28;20253;-70
2023/05/28 01:28:54;;;;;;;8.65;4.35;;;9.20;95.60;;;;;;2060782;28;20222;-70
2023/05/28 01:29:56;;;;;;;8.55;4.97;;;9.20;95.70;;;;;;2053085;28;20221;-71
2023/05/28 01:30:57;;;;;;;7.45;4.40;;;9.20;95.70;;;;;;2056320;28;20232;-71
2023/05/28 01:31:58;;;;;;;8.07;4.57;;;9.20;95.70;;;;;;2055818;28;20257;-71
2023/05/28 01:32:59;;;;;;;6.67;4.00;;;9.30;95.70;;;;;;2053167;28;20702;-71
2023/05/28 01:34:01;;;;;;;15.03;4.70;;;9.30;99.90;;;;;;2043912;28;20231;-70
2023/05/28 01:35:03;;;;;;;9.85;4.82;;;9.20;95.80;;;;;;2054571;28;20686;-71
2023/05/28 01:36:07;;;;;;;6.30;4.47;;;9.20;96.10;;;;;;2053467;28;20203;-71
2023/05/28 01:37:10;;;;;;;8.32;4.38;;;9.10;95.60;;;;;;2063888;28;20619;-71
2023/05/28 01:38:14;;;;;;;9.52;4.60;;;9.10;95.80;;;;;;2052106;28;20318;-70
2023/05/28 01:39:19;;;;;;;9.98;4.20;;;9.10;95.80;;;;;;2048026;28;20976;-70
2023/05/28 01:40:21;;;;;;;8.27;4.70;;;9.10;95.80;;;;;;2051018;28;22754;-70
2023/05/28 01:41:22;;;;;;;5.60;3.70;;;9.30;95.90;;;;;;2062386;28;20659;-70
2023/05/28 01:42:23;;;;;;;8.13;4.10;;;9.00;96.10;;;;;;2059351;28;20278;-70
2023/05/28 01:43:24;;;;;;;6.63;3.97;;;9.00;96.20;;;;;;2051055;28;20234;-70
2023/05/28 01:44:27;;;;;;;6.63;4.30;;;8.20;96.10;;;;;;2052262;28;20241;-70
2023/05/28 01:45:29;;;;;;;10.40;4.30;;;8.90;96.50;;;;;;2055644;28;20317;-70
2023/05/28 01:46:30;;;;;;;9.30;4.47;;;9.10;96.70;;;;;;2053887;28;20237;-70
2023/05/28 01:47:32;;;;;;;9.40;4.37;;;8.90;96.90;;;;;;2061743;28;20375;-70
2023/05/28 01:48:34;;;;;;;10.50;4.47;;;8.90;97.40;;;;;;2065430;28;20237;-71
2023/05/28 01:49:38;;;;;;;7.68;4.28;;;8.90;97.00;;;;;;2065139;28;20225;-70
2023/05/28 01:50:39;;;;;;;8.05;4.13;;;8.90;96.90;;;;;;2070038;28;20226;-71
2023/05/28 01:51:40;;;;;;;7.37;3.90;;;9.10;96.90;;;;;;2069921;28;20770;-70
2023/05/28 01:52:41;;;;;;;9.13;5.00;;;8.90;96.80;;;;;;2060511;28;20609;-71
2023/05/28 01:53:41;;;;;;;9.15;4.38;;;9.00;96.80;;;;;;2065055;28;20278;-70
2023/05/28 01:54:42;;;;;;;6.93;3.90;;;8.90;96.80;;;;;;2067696;28;21253;-70
2023/05/28 01:55:43;;;;;;;11.00;4.33;;;9.20;96.80;;;;;;2056282;28;20604;-71
2023/05/28 01:56:45;;;;;;;9.53;3.87;;;8.80;96.80;;;;;;2060824;28;20358;-70
2023/05/28 01:57:46;;;;;;;10.50;4.60;;;8.80;96.90;;;;;;2064203;28;20227;-70
2023/05/28 01:58:48;;;;;;;9.07;4.07;;;8.80;97.00;;;;;;2060510;28;20245;-70
2023/05/28 01:59:48;;;;;;;8.88;4.43;;;8.80;97.00;;;;;;2058271;28;20272;-70
2023/05/28 02:01:05;;;;;;;7.63;4.30;;;8.80;97.10;;;;;;2055446;28;20693;-70
2023/05/28 02:02:07;;;;;;;6.25;4.28;;;8.80;97.00;;;;;;2053949;28;20578;-70
2023/05/28 02:03:11;;;;;;;6.70;4.10;;;8.70;99.90;;;;;;2057238;28;20232;-70
2023/05/28 02:04:11;;;;;;;7.25;4.25;;;9.00;99.90;;;;;;2052530;28;20231;-70
2023/05/28 02:05:12;;;;;;;7.03;4.20;;;8.80;97.20;;;;;;2056478;28;20226;-70
2023/05/28 02:06:13;;;;;;;9.03;4.47;;;8.90;99.90;;;;;;2061170;28;20183;-70
2023/05/28 02:07:14;;;;;;;8.43;4.90;;;8.80;97.30;;;;;;2054628;28;20639;-70
2023/05/28 02:08:14;;;;;;;8.10;4.17;;;8.70;97.30;;;;;;2060760;28;20443;-70
2023/05/28 02:09:15;;;;;;;6.50;4.00;;;8.80;99.90;;;;;;2066631;28;20232;-70
2023/05/28 02:10:16;;;;;;;8.83;4.73;;;8.70;97.50;;;;;;2068684;28;20691;-70
2023/05/28 02:11:18;;;;;;;9.00;4.67;;;8.70;97.50;;;;;;2066585;28;20331;-71
2023/05/28 02:12:18;;;;;;;9.52;4.50;;;8.80;97.50;;;;;;2071229;28;20201;-70
2023/05/28 02:13:19;;;;;;;7.43;4.20;;;8.80;97.60;;;;;;2067508;28;20304;-70
2023/05/28 02:14:21;;;;;;;6.47;4.25;;;8.70;97.50;;;;;;2060244;28;20242;-70
2023/05/28 02:15:22;;;;;;;5.65;3.90;;;8.70;97.50;;;;;;2055669;28;20324;-70
2023/05/28 02:16:23;;;;;;;9.87;4.27;;;8.70;97.30;;;;;;2059910;28;20580;-71
2023/05/28 02:17:24;;;;;;;10.55;4.35;;;8.70;97.80;;;;;;2062226;28;20236;-70
2023/05/28 02:18:30;;;;;;;8.70;4.53;;;8.70;97.40;;;;;;2055243;28;20766;-70
2023/05/28 02:19:32;;;;;;;7.68;4.03;;;8.70;97.30;;;;;;2054098;28;20286;-71
2023/05/28 02:20:33;;;;;;;7.43;4.30;;;8.70;97.40;;;;;;2054554;28;20279;-70
2023/05/28 02:21:36;;;;;;;7.27;3.77;;;8.70;97.70;;;;;;2055676;28;20697;-70
2023/05/28 02:22:36;;;;;;;6.50;4.07;;;8.70;97.10;;;;;;2071504;28;20351;-70
2023/05/28 02:23:47;;;;;;;7.93;3.93;;;8.70;97.20;;;;;;2067488;28;20607;-70
2023/05/28 02:24:49;;;;;;;6.32;3.63;;;8.80;97.40;;;;;;2063500;28;20213;-70
2023/05/28 02:25:50;;;;;;;6.72;3.67;;;8.60;97.70;;;;;;2053451;28;20714;-70
2023/05/28 02:26:51;;;;;;;6.80;3.73;;;8.50;98.10;;;;;;2061563;28;20285;-70
2023/05/28 02:27:51;;;;;;;6.67;4.13;;;8.50;98.30;;;;;;2058041;28;20776;-70
2023/05/28 02:28:52;;;;;;;8.17;4.43;;;8.50;98.50;;;;;;2060542;28;20472;-70
2023/05/28 02:29:53;;;;;;;9.67;4.23;;;8.50;98.60;;;;;;2059556;28;20261;-70
2023/05/28 02:30:54;;;;;;;7.23;4.27;;;8.50;98.60;;;;;;2059675;28;20601;-70
2023/05/28 02:31:54;;;;;;;7.47;4.03;;;8.40;98.50;;;;;;2066762;28;20300;-70
2023/05/28 02:32:55;;;;;;;11.93;4.70;;;8.40;98.60;;;;;;2056941;28;20233;-71
2023/05/28 02:33:56;;;;;;;9.90;4.00;;;8.40;98.50;;;;;;2061945;28;20300;-70
2023/05/28 02:34:57;;;;;;;7.57;4.30;;;8.40;98.50;;;;;;2059750;28;20350;-71
2023/05/28 02:35:58;;;;;;;7.75;4.13;;;8.70;98.50;;;;;;2061212;28;20227;-70
2023/05/28 02:37:00;;;;;;;9.10;4.40;;;8.50;98.30;;;;;;2052312;28;20720;-70
2023/05/28 02:38:00;;;;;;;10.45;4.72;;;8.40;98.90;;;;;;2046430;28;20300;-71
2023/05/28 02:39:03;;;;;;;8.93;4.73;;;8.50;99.90;;;;;;2055471;28;20632;-70
2023/05/28 02:40:05;;;;;;;10.43;4.70;;;8.40;98.40;;;;;;2059223;28;20186;-70
2023/05/28 02:41:06;;;;;;;13.60;4.97;;;8.30;99.90;;;;;;2049830;28;20712;-70
2023/05/28 02:42:07;;;;;;;7.03;4.07;;;8.40;98.40;;;;;;2045550;28;20215;-71
2023/05/28 02:43:08;;;;;;;7.45;4.30;;;8.20;99.90;;;;;;2044665;28;20183;-71
2023/05/28 02:44:09;;;;;;;9.18;4.50;;;8.60;99.90;;;;;;2053751;28;20732;-70
2023/05/28 02:45:10;;;;;;;11.13;4.40;;;8.40;98.10;;;;;;2059757;28;20194;-70
2023/05/28 02:46:11;;;;;;;5.67;3.97;;;8.40;98.10;;;;;;2063406;28;20196;-70
2023/05/28 02:47:11;;;;;;;7.17;4.10;;;8.30;98.10;;;;;;2067348;28;20285;-70
2023/05/28 02:48:15;;;;;;;8.40;4.00;;;8.50;98.50;;;;;;2054965;28;20717;-70
2023/05/28 02:49:15;;;;;;;8.52;4.15;;;8.40;98.60;;;;;;2055452;28;20194;-71
2023/05/28 02:50:17;;;;;;;5.93;4.13;;;8.20;98.50;;;;;;2067159;28;20178;-70
2023/05/28 02:51:19;;;;;;;12.43;5.10;;;8.20;99.50;;;;;;2066256;28;20616;-70
2023/05/28 02:52:20;;;;;;;9.25;3.90;;;8.20;99.20;;;;;;2061274;28;22614;-70
2023/05/28 02:53:22;;;;;;;8.88;4.30;;;8.30;99.30;;;;;;2063959;28;20256;-70
2023/05/28 02:54:23;;;;;;;8.68;3.80;;;8.10;99.30;;;;;;2054562;28;20238;-70
2023/05/28 02:55:24;;;;;;;7.80;3.87;;;8.10;99.40;;;;;;2055747;28;20281;-70
2023/05/28 02:56:25;;;;;;;6.73;3.77;;;8.00;99.30;;;;;;2055030;28;20242;-70
2023/05/28 02:57:27;;;;;;;6.15;4.10;;;8.10;99.30;;;;;;2055660;28;20740;-70
2023/05/28 02:58:30;;;;;;;9.00;3.97;;;8.10;99.20;;;;;;2058618;28;20226;-70
2023/05/28 02:59:30;;;;;;;8.68;4.43;;;8.20;99.10;;;;;;2067094;28;20229;-70
2023/05/28 03:00:33;;;;;;;6.63;4.00;;;;;;;;;;2059457;28;20616;-70
2023/05/28 03:01:34;;;;;;;9.65;4.70;;;8.20;98.40;;;;;;2059527;28;20323;-70
2023/05/28 03:02:35;;;;;;;8.68;4.47;;;8.20;98.90;;;;;;2058528;28;20324;-70
2023/05/28 03:03:36;;;;;;;6.95;4.38;;;8.20;98.70;;;;;;2059202;28;20245;-70
2023/05/28 03:04:36;;;;;;;9.67;4.50;;;8.20;99.30;;;;;;2055671;28;20322;-70
2023/05/28 03:05:37;;;;;;;12.47;4.60;;;8.20;98.90;;;;;;2058129;28;20701;-70
2023/05/28 03:06:38;;;;;;;5.67;3.63;;;8.20;98.80;;;;;;2058731;28;20791;-70
2023/05/28 03:07:39;;;;;;;10.60;4.53;;;8.20;98.80;;;;;;2054884;28;20631;-70
2023/05/28 03:08:41;;;;;;;6.53;4.23;;;8.20;98.80;;;;;;2055319;28;20269;-70
2023/05/28 03:09:42;;;;;;;7.47;4.10;;;8.20;98.90;;;;;;2051680;28;20231;-70
2023/05/28 03:10:42;;;;;;;7.80;4.33;;;8.10;99.20;;;;;;2055529;28;20341;-70
2023/05/28 03:11:43;;;;;;;10.33;4.57;;;8.10;99.10;;;;;;2064129;28;20236;-70
2023/05/28 03:12:44;;;;;;;7.27;3.80;;;8.10;99.10;;;;;;2060692;28;20753;-70
2023/05/28 03:13:45;;;;;;;9.37;4.20;;;8.10;99.00;;;;;;2062555;28;20300;-70
2023/05/28 03:14:46;;;;;;;8.43;4.55;;;8.10;99.00;;;;;;2067909;28;20229;-71
2023/05/28 03:15:47;;;;;;;7.57;4.37;;;8.10;99.10;;;;;;2054239;28;20227;-70
2023/05/28 03:16:47;;;;;;;7.43;4.37;;;8.00;99.10;;;;;;2054871;28;20223;-70
2023/05/28 03:17:48;;;;;;;9.07;4.00;;;8.00;99.20;;;;;;2059795;28;20221;-70
2023/05/28 03:18:49;;;;;;;10.57;4.20;;;8.00;99.20;;;;;;2053659;28;20263;-71
2023/05/28 03:19:49;;;;;;;9.60;4.50;;;8.00;99.10;;;;;;2058815;28;20274;-72
2023/05/28 03:20:51;;;;;;;10.33;4.33;;;8.00;99.20;;;;;;2059954;28;20231;-71
2023/05/28 03:21:52;;;;;;;7.38;4.22;;;8.00;99.30;;;;;;2059341;28;20222;-71
2023/05/28 03:22:56;;;;;;;7.73;4.07;;;8.10;99.30;;;;;;2066681;28;20224;-71
2023/05/28 03:23:58;;;;;;;6.72;4.18;;;;;;;;;;2054721;28;20768;-70
2023/05/28 03:24:59;;;;;;;6.20;3.85;;;8.10;98.90;;;;;;2055513;28;20222;-71
2023/05/28 03:26:00;;;;;;;6.28;4.00;;;;;;;;;;2058859;28;20760;-72
2023/05/28 03:27:02;;;;;;;6.72;3.90;;;8.00;98.80;;;;;;2062347;28;20613;-70
2023/05/28 03:28:02;;;;;;;9.02;4.40;;;8.00;99.40;;;;;;2041010;28;20204;-71
2023/05/28 03:29:03;;;;;;;8.63;3.93;;;8.00;99.60;;;;;;2039847;28;20644;-71
2023/05/28 03:30:06;;;;;;;9.43;4.43;;;8.00;99.90;;;;;;2049275;28;20206;-71
2023/05/28 03:31:07;;;;;;;9.52;4.15;;;8.00;99.90;;;;;;2046643;28;20650;-71
2023/05/28 03:32:09;;;;;;;7.67;4.20;;;8.00;99.90;;;;;;2052126;28;20230;-71
2023/05/28 03:33:10;;;;;;;8.20;4.50;;;8.10;99.90;;;;;;2056459;28;20594;-71
2023/05/28 03:34:11;;;;;;;7.10;3.90;;;7.90;99.90;;;;;;2058704;28;20198;-71
2023/05/28 03:35:12;;;;;;;8.35;4.63;;;8.00;99.10;;;;;;2062784;28;20663;-71
2023/05/28 03:36:13;;;;;;;7.33;4.60;;;8.00;99.20;;;;;;2060668;28;20206;-71
2023/05/28 03:37:13;;;;;;;10.40;4.03;;;7.90;99.40;;;;;;2064610;28;20190;-71
2023/05/28 03:38:15;;;;;;;10.87;4.43;;;7.70;99.90;;;;;;2060183;28;20224;-71
2023/05/28 03:39:16;;;;;;;11.13;4.30;;;7.90;99.80;;;;;;2059868;28;20187;-71
2023/05/28 03:40:17;;;;;;;6.88;3.63;;;7.90;99.90;;;;;;2063059;28;20182;-71
2023/05/28 03:41:17;;;;;;;9.27;4.13;;;7.80;99.90;;;;;;2052241;28;20179;-70
2023/05/28 03:42:19;;;;;;;13.37;3.90;;;8.00;99.90;;;;;;2054432;28;20191;-70
2023/05/28 03:43:20;;;;;;;6.85;3.53;;;8.00;99.90;;;;;;2054896;28;20769;-70
2023/05/28 03:44:21;;;;;;;10.20;4.60;;;8.00;99.90;;;;;;2057618;28;20297;-70
2023/05/28 03:45:21;;;;;;;6.17;4.47;;;7.90;99.90;;;;;;2050905;28;20628;-70
2023/05/28 03:46:23;;;;;;;6.17;4.03;;;7.80;99.90;;;;;;2055102;28;20318;-70
2023/05/28 03:47:24;;;;;;;9.73;4.72;;;7.80;99.90;;;;;;2058170;28;20694;-70
2023/05/28 03:48:25;;;;;;;9.90;4.53;;;7.80;99.90;;;;;;2066602;28;20236;-70
2023/05/28 03:49:26;;;;;;;5.90;3.73;;;7.90;99.90;;;;;;2058709;28;20236;-70
2023/05/28 03:50:27;;;;;;;11.68;4.80;;;7.90;99.90;;;;;;2058668;28;20231;-70
2023/05/28 03:51:27;;;;;;;7.17;4.10;;;7.90;99.90;;;;;;2059860;28;20599;-71
2023/05/28 03:52:28;;;;;;;9.03;4.20;;;8.00;99.90;;;;;;2065985;28;20226;-70
2023/05/28 03:53:29;;;;;;;10.37;4.33;;;8.00;99.90;;;;;;2055556;28;20227;-70
2023/05/28 03:54:31;;;;;;;7.00;4.47;;;8.00;99.90;;;;;;2065029;28;20248;-70
2023/05/28 03:55:35;;;;;;;6.68;3.63;;;8.00;99.90;;;;;;2060361;28;20715;-70
2023/05/28 03:56:35;;;;;;;6.80;3.83;;;7.90;99.90;;;;;;2064437;28;20613;-70
2023/05/28 03:57:37;;;;;;;7.83;4.00;;;7.90;99.90;;;;;;2067739;28;20256;-70
2023/05/28 03:58:37;;;;;;;9.70;4.13;;;7.90;99.90;;;;;;2062584;28;20704;-70
2023/05/28 03:59:38;;;;;;;9.20;3.80;;;7.90;99.90;;;;;;2059633;28;20225;-70
2023/05/28 04:00:39;;;;;;;9.77;5.30;;;7.90;99.90;;;;;;2059056;28;20618;-70
2023/05/28 04:01:40;;;;;;;7.93;4.22;;;8.30;99.90;;;;;;2058258;28;20268;-70
2023/05/28 04:02:41;;;;;;;7.40;4.17;;;8.00;99.90;;;;;;2061648;28;20238;-70
2023/05/28 04:03:42;;;;;;;10.32;4.25;;;8.10;99.90;;;;;;2062150;28;20227;-70
2023/05/28 04:04:43;;;;;;;8.80;4.20;;;8.10;99.90;;;;;;2060715;28;20610;-71
2023/05/28 04:05:44;;;;;;;8.10;4.13;;;8.10;99.90;;;;;;2069635;28;20242;-70
2023/05/28 04:06:45;;;;;;;8.77;4.23;;;8.10;99.90;;;;;;2070874;28;20688;-71
2023/05/28 04:07:46;;;;;;;5.55;4.00;;;8.10;99.90;;;;;;2069082;28;20252;-70
2023/05/28 04:08:47;;;;;;;7.50;4.20;;;8.20;99.80;;;;;;2052494;28;20812;-70
2023/05/28 04:09:48;;;;;;;6.82;3.75;;;8.20;99.80;;;;;;2046015;28;20231;-70
2023/05/28 04:10:49;;;;;;;7.37;4.50;;;8.20;99.70;;;;;;2069695;28;20297;-70
2023/05/28 04:11:50;;;;;;;8.67;4.10;;;8.30;99.50;;;;;;2064705;28;20797;-70
2023/05/28 04:12:50;;;;;;;6.27;4.50;;;8.20;99.50;;;;;;2051105;28;20961;-70
2023/05/28 04:13:52;;;;;;;10.20;4.07;;;8.20;99.40;;;;;;2061676;28;20219;-70
2023/05/28 04:14:52;;;;;;;7.20;3.97;;;8.20;99.50;;;;;;2056926;28;20307;-71
2023/05/28 04:15:53;;;;;;;10.30;4.43;;;8.40;99.90;;;;;;2063723;28;20304;-71
2023/05/28 04:16:56;;;;;;;5.70;3.80;;;8.30;99.50;;;;;;2059346;28;20267;-71
2023/05/28 04:17:57;;;;;;;9.75;4.10;;;8.20;99.40;;;;;;2055990;28;20236;-70
2023/05/28 04:19:00;;;;;;;6.65;4.20;;;8.20;99.60;;;;;;2055484;28;20222;-70
2023/05/28 04:20:05;;;;;;;7.53;3.88;;;8.40;99.90;;;;;;2044363;28;20223;-71
2023/05/28 04:21:06;;;;;;;9.95;3.95;;;8.50;99.90;;;;;;2056451;28;20191;-70
2023/05/28 04:22:08;;;;;;;7.30;4.05;;;8.20;99.70;;;;;;2063501;28;20237;-71
2023/05/28 04:23:09;;;;;;;9.88;4.22;;;8.30;99.90;;;;;;2066392;28;20640;-71
2023/05/28 04:24:11;;;;;;;9.60;4.68;;;8.50;99.90;;;;;;2061080;28;20213;-71
2023/05/28 04:25:12;;;;;;;7.82;4.85;;;8.30;99.70;;;;;;2059950;28;20270;-70
2023/05/28 04:26:14;;;;;;;7.50;4.13;;;8.30;99.70;;;;;;2050752;28;20601;-70
2023/05/28 04:27:15;;;;;;;6.80;4.15;;;8.40;99.70;;;;;;2056699;28;20202;-70
2023/05/28 04:28:16;;;;;;;8.93;3.70;;;8.20;99.60;;;;;;2060166;28;20572;-71
2023/05/28 04:29:18;;;;;;;12.40;4.28;;;8.20;99.90;;;;;;2070238;28;20192;-70
2023/05/28 04:30:20;;;;;;;7.45;4.25;;;8.40;99.90;;;;;;2067758;28;20236;-71
2023/05/28 04:31:21;;;;;;;8.13;3.92;;;8.30;99.90;;;;;;2062781;28;20236;-70
2023/05/28 04:32:23;;;;;;;7.80;4.40;;;8.40;99.70;;;;;;2068644;28;20268;-71
2023/05/28 04:33:28;;;;;;;6.95;4.53;;;8.70;99.80;;;;;;2071541;28;20320;-70
2023/05/28 04:34:29;;;;;;;13.63;4.88;;;8.40;99.60;;;;;;2065238;28;20315;-70
2023/05/28 04:35:30;;;;;;;8.98;4.20;;;8.40;99.50;;;;;;2074480;28;20554;-70
2023/05/28 04:36:33;;;;;;;8.97;4.07;;;8.50;99.70;;;;;;2060719;28;20222;-70
2023/05/28 04:37:36;;;;;;;8.75;4.00;;;8.50;99.60;;;;;;2061410;28;20225;-70
2023/05/28 04:38:37;;;;;;;8.45;4.75;;;8.50;99.60;;;;;;2064126;28;20232;-70
2023/05/28 04:39:38;;;;;;;8.70;4.43;;;8.50;99.60;;;;;;2050040;28;20823;-70
2023/05/28 04:40:39;;;;;;;9.50;3.97;;;8.50;99.70;;;;;;2062376;28;20315;-71
2023/05/28 04:41:40;;;;;;;7.32;3.55;;;8.40;99.90;;;;;;2060214;28;20713;-71
2023/05/28 04:42:41;;;;;;;8.30;4.28;;;8.50;99.90;;;;;;2065089;28;20606;-70
2023/05/28 04:43:42;;;;;;;9.97;4.47;;;8.50;99.90;;;;;;2065557;28;20236;-69
2023/05/28 04:44:44;;;;;;;10.90;4.70;;;8.40;99.90;;;;;;2054691;28;20790;-70
2023/05/28 04:45:45;;;;;;;8.15;4.45;;;8.40;99.90;;;;;;2064095;28;20707;-70
2023/05/28 04:46:46;;;;;;;7.77;4.17;;;8.40;99.90;;;;;;2064984;28;20226;-71
2023/05/28 04:47:49;;;;;;;6.30;4.13;;;8.40;99.90;;;;;;2055407;28;20223;-70
2023/05/28 04:48:50;;;;;;;6.57;3.97;;;8.50;99.90;;;;;;2064960;28;20588;-70
2023/05/28 04:49:51;;;;;;;7.28;4.60;;;8.50;99.90;;;;;;2055143;28;20641;-70
2023/05/28 04:50:53;;;;;;;12.63;4.80;;;8.60;99.90;;;;;;2065115;28;20219;-70
2023/05/28 04:51:54;;;;;;;7.68;4.28;;;8.70;99.90;;;;;;2056886;28;20720;-71
2023/05/28 04:52:55;;;;;;;9.00;4.23;;;8.70;99.90;;;;;;2056328;28;20310;-70
2023/05/28 04:53:55;;;;;;;6.77;4.13;;;8.80;99.90;;;;;;2056833;28;20228;-70
2023/05/28 04:54:57;;;;;;;7.75;4.10;;;8.70;99.80;;;;;;2060531;28;20336;-70
2023/05/28 04:55:58;;;;;;;8.43;4.10;;;8.80;99.90;;;;;;2071287;28;20237;-70
2023/05/28 04:56:58;;;;;;;6.53;3.37;;;8.90;99.70;;;;;;2066215;28;20221;-71
2023/05/28 04:57:59;;;;;;;8.17;4.20;;;8.90;99.70;;;;;;2069207;28;20249;-70
2023/05/28 04:59:04;;;;;;;10.37;4.20;;;9.10;99.90;;;;;;2068757;28;20302;-72
2023/05/28 05:00:12;;;;;;;5.93;4.00;;;8.90;99.90;;;;;;2067537;28;20209;-71
2023/05/28 05:01:14;;;;;;;7.70;3.58;;;9.00;99.80;;;;;;2067903;28;20613;-71
2023/05/28 05:02:19;;;;;;;5.47;3.65;;;9.00;99.60;;;;;;2056447;28;20201;-71
2023/05/28 05:03:20;;;;;;;6.80;4.18;;;9.00;99.70;;;;;;2055535;28;20676;-70
2023/05/28 05:04:21;;;;;;;10.83;4.67;;;9.00;99.70;;;;;;2064571;28;20249;-71
2023/05/28 05:05:22;;;;;;;8.87;3.63;;;9.10;99.50;;;;;;2059259;28;20625;-70
2023/05/28 05:06:23;;;;;;;11.77;3.83;;;9.10;99.40;;;;;;2057155;28;20226;-70
2023/05/28 05:07:23;;;;;;;8.10;4.47;;;9.20;99.30;;;;;;2063836;28;20234;-72
2023/05/28 05:08:25;;;;;;;9.43;4.10;;;9.20;99.20;;;;;;2064289;28;20250;-70
2023/05/28 05:09:27;;;;;;;7.05;3.63;;;9.20;99.20;;;;;;2058089;28;20225;-72
2023/05/28 05:10:27;;;;;;;8.65;4.07;;;9.30;99.10;;;;;;2062925;28;20312;-70
2023/05/28 05:11:28;;;;;;;8.33;4.57;;;9.20;99.20;;;;;;2059619;28;20238;-70
2023/05/28 05:12:30;;;;;;;10.87;3.93;;;9.20;99.20;;;;;;2058532;28;20315;-70
2023/05/28 05:13:31;;;;;;;10.18;4.00;;;9.20;99.50;;;;;;2061939;28;20241;-71
2023/05/28 05:14:32;;;;;;;7.17;4.23;;;9.20;99.50;;;;;;2046539;28;20574;-71
2023/05/28 05:15:33;;;;;;;6.93;3.77;;;9.20;99.40;;;;;;2048231;28;20231;-71
2023/05/28 05:16:33;;;;;;;7.10;4.07;;;9.30;99.50;;;;;;2048674;28;20938;-70
2023/05/28 05:17:34;;;;;;;8.73;3.87;;;9.30;99.40;;;;;;2056624;28;20713;-71
2023/05/28 05:18:35;;;;;;;7.80;3.90;;;9.30;99.50;;;;;;2056415;28;20222;-70
2023/05/28 05:19:36;;;;;;;6.07;3.50;;;9.40;99.40;;;;;;2057121;28;20229;-71
2023/05/28 05:20:37;;;;;;;8.45;3.55;;;9.40;99.30;;;;;;2066079;28;20233;-71
2023/05/28 05:21:40;;;;;;;5.17;3.53;;;9.40;99.30;;;;;;2062032;28;20603;-70
2023/05/28 05:22:41;;;;;;;8.80;4.18;;;9.50;99.20;;;;;;2050361;28;20230;-71
2023/05/28 05:23:41;;;;;;;10.00;3.73;;;9.50;99.20;;;;;;2055937;28;20223;-70